Terminal Aerodrome Forecast
Issued by NWS

Home | Current Version | Previous Version | Text Only | Print | Product List | Glossary On
Versions: 1 2 3 4 5 6 7 8 9 10 11 12 13 14 15 16
511
FTUS44 KTSA 230520
TAFFYV
TAF
KFYV 230520Z 2306/2406 00000KT P6SM SCT180
     FM231300 16005KT P6SM FEW035 BKN150
     FM231800 17008KT P6SM VCTS SCT040CB BKN120
     FM240100 00000KT P6SM BKN120=

USA.gov is the U.S. government's official web portal to all federal, state and local government web resources and services.